LGKZ/KZI METAR and TAF weather

Enter ICAO airport designator
Station Type Date Time Source
LGKZ METAR 2019/06/19 00:20 UTC NOAA

LGKZ 190020Z AUTO 32004KT 300V360 //// // ////// 16/15 Q1016 RE//


Station Type Date Time Source
LGKZ Decoded METAR 2019/06/19 00:20 UTC NOAA

Kozani Airport , Greece (LGKZ) 40-18N 021-47E 627M
Jun 18, 2019 - 08:20 PM EDT / 2019.06.19 0020 UTC
Wind: from the NW (320 degrees) at 5 MPH (4 KT) (direction variable):0
Temperature: 60 F (16 C)
Dew Point: 59 F (15 C)
Relative Humidity: 93%
Pressure (altimeter): 30.00 in. Hg (1016 hPa)
ob: LGKZ 190020Z AUTO 32004KT 300V360 //// // ////// 16/15 Q1016 RE//
cycle: 0

Station Type Date Time Source
LGKZ TAF UTC NOAA

Error!

Example: see airport list